Aviation Digital Data Service (ADDS)

Output produced by METARs form (0211 UTC 22 April 2019)
found at http://www.aviationweather.gov/metar/data/
 
Forecast for: SPQU (AREQUIPA/RODRIGU, PE)
Text: TAF SPQU 212300Z 2200/2224 04004KT CAVOK TX22/2218Z TN10/2210Z
Forecast period: 0000 to 1400 UTC 22 April 2019
Forecast type: FROM: standard forecast or significant change
Winds: from the NE (40 degrees) at 5 MPH (4 knots; 2.1 m/s)
Visibility: 6 or more miles 10+ km)
Ceiling: unknown
Clouds: missing
Weather: no significant weather forecast for this period
Text: BECMG 2214/2216 25010KT
Forecast period: 1400 to 2100 UTC 22 April 2019
Forecast type: BECOMING: Conditions expected to become as follows by 1600 UTC 22 April 2019
Winds: from the WSW (250 degrees) at 12 MPH (10 knots; 5.1 m/s)
Visibility: 6 or more miles 10+ km)
Ceiling: unknown
Clouds: missing
Weather: no significant weather forecast for this period
Text: FM222100 28005KT 9999 FEW100
Forecast period: 2100 UTC 22 April 2019 to 0000 UTC 23 April 2019
Forecast type: FROM: standard forecast or significant change
Winds: from the W (280 degrees) at 6 MPH (5 knots; 2.6 m/s)
Visibility: 6 or more miles 10+ km)
Ceiling: at least 12,000 feet AGL
Clouds: few clouds at 10000 feet AGL
Weather: no significant weather forecast for this period